sensor_id;sensor_type;location;lat;lon;timestamp;pressure;altitude;pressure_sealevel;temperature;humidity
14295;BME280;7231;59.370;18.016;2023-01-27T00:00:40;102560.38;;;-1.71;93.63
14295;BME280;7231;59.370;18.016;2023-01-27T00:03:10;102554.16;;;-1.73;93.72
14295;BME280;7231;59.370;18.016;2023-01-27T00:05:39;102563.53;;;-1.74;93.81
14295;BME280;7231;59.370;18.016;2023-01-27T00:08:07;102569.59;;;-1.73;93.74
14295;BME280;7231;59.370;18.016;2023-01-27T00:10:35;102572.00;;;-1.75;93.97
14295;BME280;7231;59.370;18.016;2023-01-27T00:13:03;102572.16;;;-1.73;94.15
14295;BME280;7231;59.370;18.016;2023-01-27T00:15:50;102573.66;;;-1.75;93.65
14295;BME280;7231;59.370;18.016;2023-01-27T00:18:18;102570.34;;;-1.74;94.06
14295;BME280;7231;59.370;18.016;2023-01-27T00:20:46;102581.22;;;-1.77;94.05
14295;BME280;7231;59.370;18.016;2023-01-27T00:23:32;102581.81;;;-1.79;94.01
14295;BME280;7231;59.370;18.016;2023-01-27T00:26:18;102582.25;;;-1.83;94.21
14295;BME280;7231;59.370;18.016;2023-01-27T00:28:46;102586.47;;;-1.84;94.19
14295;BME280;7231;59.370;18.016;2023-01-27T00:31:16;102588.88;;;-1.85;94.10
14295;BME280;7231;59.370;18.016;2023-01-27T00:34:03;102581.91;;;-1.86;94.35
14295;BME280;7231;59.370;18.016;2023-01-27T00:36:36;102573.28;;;-1.87;94.31
14295;BME280;7231;59.370;18.016;2023-01-27T00:39:05;102572.38;;;-1.87;94.59
14295;BME280;7231;59.370;18.016;2023-01-27T00:41:34;102567.25;;;-1.87;94.68
14295;BME280;7231;59.370;18.016;2023-01-27T00:44:02;102584.31;;;-1.88;94.61
14295;BME280;7231;59.370;18.016;2023-01-27T00:46:34;102507.34;;;-2.35;94.51
14295;BME280;7231;59.370;18.016;2023-01-27T00:49:01;102575.31;;;-2.00;94.75
14295;BME280;7231;59.370;18.016;2023-01-27T00:51:29;102589.91;;;-1.92;94.56
14295;BME280;7231;59.370;18.016;2023-01-27T00:53:57;102588.34;;;-1.99;94.76
14295;BME280;7231;59.370;18.016;2023-01-27T00:56:28;102593.97;;;-1.94;94.84
14295;BME280;7231;59.370;18.016;2023-01-27T00:58:56;102588.66;;;-1.96;94.90
14295;BME280;7231;59.370;18.016;2023-01-27T01:01:24;102586.84;;;-1.97;95.04
14295;BME280;7231;59.370;18.016;2023-01-27T01:03:54;102572.59;;;-2.02;94.88
14295;BME280;7231;59.370;18.016;2023-01-27T01:06:22;102593.63;;;-1.97;95.19
14295;BME280;7231;59.370;18.016;2023-01-27T01:08:50;102593.47;;;-1.99;95.23
14295;BME280;7231;59.370;18.016;2023-01-27T01:11:19;102593.47;;;-1.99;95.18
14295;BME280;7231;59.370;18.016;2023-01-27T01:13:48;102595.88;;;-2.00;95.21
14295;BME280;7231;59.370;18.016;2023-01-27T01:16:17;102596.63;;;-2.01;95.07
14295;BME280;7231;59.370;18.016;2023-01-27T01:18:46;102565.34;;;-2.21;95.12
14295;BME280;7231;59.370;18.016;2023-01-27T01:21:15;102564.91;;;-2.17;95.21
14295;BME280;7231;59.370;18.016;2023-01-27T01:23:44;102563.75;;;-2.12;95.44
14295;BME280;7231;59.370;18.016;2023-01-27T01:26:14;102570.28;;;-2.07;95.56
14295;BME280;7231;59.370;18.016;2023-01-27T01:28:42;102562.41;;;-2.09;95.33
14295;BME280;7231;59.370;18.016;2023-01-27T01:31:13;102556.34;;;-2.09;95.61
14295;BME280;7231;59.370;18.016;2023-01-27T01:33:41;102557.09;;;-2.10;95.54
14295;BME280;7231;59.370;18.016;2023-01-27T01:36:10;102562.84;;;-2.13;95.46
14295;BME280;7231;59.370;18.016;2023-01-27T01:38:40;102557.53;;;-2.14;95.83
14295;BME280;7231;59.370;18.016;2023-01-27T01:41:11;102560.09;;;-2.14;95.87
14295;BME280;7231;59.370;18.016;2023-01-27T01:43:39;102561.59;;;-2.16;95.96
14295;BME280;7231;59.370;18.016;2023-01-27T01:46:08;102537.09;;;-2.37;95.72
14295;BME280;7231;59.370;18.016;2023-01-27T01:48:39;102526.19;;;-2.43;95.63
14295;BME280;7231;59.370;18.016;2023-01-27T01:51:10;102571.56;;;-2.19;96.00
14295;BME280;7231;59.370;18.016;2023-01-27T01:53:44;102478.13;;;-2.69;95.73
14295;BME280;7231;59.370;18.016;2023-01-27T01:56:18;102556.72;;;-2.22;96.00
14295;BME280;7231;59.370;18.016;2023-01-27T01:58:47;102560.78;;;-2.24;96.10
14295;BME280;7231;59.370;18.016;2023-01-27T02:01:17;102556.22;;;-2.26;96.12
14295;BME280;7231;59.370;18.016;2023-01-27T02:03:50;102556.06;;;-2.28;95.96
14295;BME280;7231;59.370;18.016;2023-01-27T02:06:20;102562.88;;;-2.29;96.38
14295;BME280;7231;59.370;18.016;2023-01-27T02:08:50;102564.53;;;-2.29;96.10
14295;BME280;7231;59.370;18.016;2023-01-27T02:11:18;102564.78;;;-2.35;96.12
14295;BME280;7231;59.370;18.016;2023-01-27T02:13:46;102585.50;;;-2.33;96.38
14295;BME280;7231;59.370;18.016;2023-01-27T02:16:15;102576.72;;;-2.35;96.27
14295;BME280;7231;59.370;18.016;2023-01-27T02:18:43;102554.09;;;-2.46;96.37
14295;BME280;7231;59.370;18.016;2023-01-27T02:21:11;102576.22;;;-2.40;96.16
14295;BME280;7231;59.370;18.016;2023-01-27T02:23:56;102581.19;;;-2.41;96.50
14295;BME280;7231;59.370;18.016;2023-01-27T02:26:29;102550.09;;;-2.60;96.27
14295;BME280;7231;59.370;18.016;2023-01-27T02:29:01;102587.66;;;-2.45;96.33
14295;BME280;7231;59.370;18.016;2023-01-27T02:31:29;102601.25;;;-2.46;96.41
14295;BME280;7231;59.370;18.016;2023-01-27T02:34:01;102595.94;;;-2.47;96.68
14295;BME280;7231;59.370;18.016;2023-01-27T02:36:34;102600.19;;;-2.48;96.55
14295;BME280;7231;59.370;18.016;2023-01-27T02:39:06;102596.53;;;-2.50;96.74
14295;BME280;7231;59.370;18.016;2023-01-27T02:41:40;102600.91;;;-2.49;96.69
14295;BME280;7231;59.370;18.016;2023-01-27T02:44:09;102602.56;;;-2.49;96.68
14295;BME280;7231;59.370;18.016;2023-01-27T02:46:38;102597.69;;;-2.55;96.66
14295;BME280;7231;59.370;18.016;2023-01-27T02:49:06;102611.03;;;-2.50;96.88
14295;BME280;7231;59.370;18.016;2023-01-27T02:51:34;102613.44;;;-2.52;96.89
14295;BME280;7231;59.370;18.016;2023-01-27T02:54:02;102616.91;;;-2.51;96.79
14295;BME280;7231;59.370;18.016;2023-01-27T02:56:30;102606.31;;;-2.54;97.18
14295;BME280;7231;59.370;18.016;2023-01-27T02:58:59;102615.09;;;-2.52;97.07
14295;BME280;7231;59.370;18.016;2023-01-27T03:01:27;102607.22;;;-2.54;97.01
14295;BME280;7231;59.370;18.016;2023-01-27T03:03:58;102608.72;;;-2.56;97.07
14295;BME280;7231;59.370;18.016;2023-01-27T03:06:27;102600.09;;;-2.56;96.82
14295;BME280;7231;59.370;18.016;2023-01-27T03:08:55;102604.16;;;-2.58;97.11
14295;BME280;7231;59.370;18.016;2023-01-27T03:11:23;102613.50;;;-2.59;96.98
14295;BME280;7231;59.370;18.016;2023-01-27T03:14:07;102605.81;;;-2.59;97.27
14295;BME280;7231;59.370;18.016;2023-01-27T03:16:35;102599.75;;;-2.59;97.11
14295;BME280;7231;59.370;18.016;2023-01-27T03:19:20;102605.81;;;-2.59;97.32
14295;BME280;7231;59.370;18.016;2023-01-27T03:21:48;102611.84;;;-2.58;97.63
14295;BME280;7231;59.370;18.016;2023-01-27T03:24:18;102611.72;;;-2.60;97.12
14295;BME280;7231;59.370;18.016;2023-01-27T03:26:46;102610.66;;;-2.62;97.47
14295;BME280;7231;59.370;18.016;2023-01-27T03:29:16;102611.41;;;-2.63;97.40
14295;BME280;7231;59.370;18.016;2023-01-27T03:32:01;102611.81;;;-2.67;97.05
14295;BME280;7231;59.370;18.016;2023-01-27T03:34:29;102609.81;;;-2.70;97.29
14295;BME280;7231;59.370;18.016;2023-01-27T03:36:57;102606.16;;;-2.72;97.73
14295;BME280;7231;59.370;18.016;2023-01-27T03:39:43;102601.78;;;-2.73;97.47
14295;BME280;7231;59.370;18.016;2023-01-27T03:42:28;102605.84;;;-2.75;97.25
14295;BME280;7231;59.370;18.016;2023-01-27T03:45:15;102615.78;;;-2.78;97.45
14295;BME280;7231;59.370;18.016;2023-01-27T03:48:00;102609.38;;;-2.81;97.58
14295;BME280;7231;59.370;18.016;2023-01-27T03:50:28;102612.69;;;-2.82;97.42
14295;BME280;7231;59.370;18.016;2023-01-27T03:53:04;102596.97;;;-2.85;97.45
14295;BME280;7231;59.370;18.016;2023-01-27T03:55:34;102606.16;;;-2.87;97.71
14295;BME280;7231;59.370;18.016;2023-01-27T03:58:02;102600.53;;;-2.92;97.67
14295;BME280;7231;59.370;18.016;2023-01-27T04:00:41;102612.09;;;-2.96;97.86
14295;BME280;7231;59.370;18.016;2023-01-27T04:03:09;102611.19;;;-2.96;97.67
14295;BME280;7231;59.370;18.016;2023-01-27T04:05:55;102593.19;;;-3.12;97.91
14295;BME280;7231;59.370;18.016;2023-01-27T04:08:41;102617.81;;;-2.98;97.63
14295;BME280;7231;59.370;18.016;2023-01-27T04:11:10;102617.81;;;-2.98;97.85
14295;BME280;7231;59.370;18.016;2023-01-27T04:13:59;102590.81;;;-3.10;97.79
14295;BME280;7231;59.370;18.016;2023-01-27T04:16:29;102594.09;;;-3.11;97.90
14295;BME280;7231;59.370;18.016;2023-01-27T04:18:57;102619.13;;;-3.02;97.96
14295;BME280;7231;59.370;18.016;2023-01-27T04:21:25;102621.53;;;-3.03;97.92
14295;BME280;7231;59.370;18.016;2023-01-27T04:23:53;102613.66;;;-3.05;97.99
14295;BME280;7231;59.370;18.016;2023-01-27T04:26:21;102619.69;;;-3.04;97.95
14295;BME280;7231;59.370;18.016;2023-01-27T04:28:50;102630.72;;;-3.05;98.29
14295;BME280;7231;59.370;18.016;2023-01-27T04:31:18;102561.59;;;-3.42;98.22
14295;BME280;7231;59.370;18.016;2023-01-27T04:33:47;102637.16;;;-3.09;98.41
14295;BME280;7231;59.370;18.016;2023-01-27T04:36:15;102636.25;;;-3.09;98.33
14295;BME280;7231;59.370;18.016;2023-01-27T04:38:43;102620.06;;;-3.24;98.34
14295;BME280;7231;59.370;18.016;2023-01-27T04:41:12;102635.00;;;-3.13;98.27
14295;BME280;7231;59.370;18.016;2023-01-27T04:43:40;102616.25;;;-3.28;98.41
14295;BME280;7231;59.370;18.016;2023-01-27T04:46:08;102637.97;;;-3.17;98.55
14295;BME280;7231;59.370;18.016;2023-01-27T04:48:36;102632.16;;;-3.23;98.50
14295;BME280;7231;59.370;18.016;2023-01-27T04:51:05;102618.31;;;-3.32;98.47
14295;BME280;7231;59.370;18.016;2023-01-27T04:53:34;102644.91;;;-3.16;98.64
14295;BME280;7231;59.370;18.016;2023-01-27T04:56:04;102615.56;;;-3.34;98.81
14295;BME280;7231;59.370;18.016;2023-01-27T04:58:32;102618.41;;;-3.23;98.43
14295;BME280;7231;59.370;18.016;2023-01-27T05:01:00;102641.28;;;-3.18;98.50
14295;BME280;7231;59.370;18.016;2023-01-27T05:03:28;102622.84;;;-3.30;98.51
14295;BME280;7231;59.370;18.016;2023-01-27T05:05:56;102641.66;;;-3.22;98.68
14295;BME280;7231;59.370;18.016;2023-01-27T05:08:25;102646.63;;;-3.23;98.90
14295;BME280;7231;59.370;18.016;2023-01-27T05:10:53;102593.56;;;-3.54;99.03
14295;BME280;7231;59.370;18.016;2023-01-27T05:13:21;102621.31;;;-3.43;98.87
14295;BME280;7231;59.370;18.016;2023-01-27T05:15:49;102657.63;;;-3.24;98.65
14295;BME280;7231;59.370;18.016;2023-01-27T05:18:17;102653.41;;;-3.24;98.78
14295;BME280;7231;59.370;18.016;2023-01-27T05:20:45;102654.16;;;-3.25;99.04
14295;BME280;7231;59.370;18.016;2023-01-27T05:23:13;102654.16;;;-3.25;99.10
14295;BME280;7231;59.370;18.016;2023-01-27T05:26:00;102587.59;;;-3.62;98.82
14295;BME280;7231;59.370;18.016;2023-01-27T05:28:29;102659.13;;;-3.27;98.90
14295;BME280;7231;59.370;18.016;2023-01-27T05:31:00;102611.91;;;-3.58;98.86
14295;BME280;7231;59.370;18.016;2023-01-27T05:33:29;102654.72;;;-3.28;99.16
14295;BME280;7231;59.370;18.016;2023-01-27T05:35:58;102605.81;;;-3.52;98.97
14295;BME280;7231;59.370;18.016;2023-01-27T05:38:27;102606.56;;;-3.53;99.20
14295;BME280;7231;59.370;18.016;2023-01-27T05:40:56;102641.03;;;-3.35;99.00
14295;BME280;7231;59.370;18.016;2023-01-27T05:43:28;102651.81;;;-3.31;98.77
14295;BME280;7231;59.370;18.016;2023-01-27T05:46:01;102663.16;;;-3.29;99.06
14295;BME280;7231;59.370;18.016;2023-01-27T05:48:30;102610.44;;;-3.56;98.89
14295;BME280;7231;59.370;18.016;2023-01-27T05:50:58;102658.25;;;-3.34;99.28
14295;BME280;7231;59.370;18.016;2023-01-27T05:53:26;102619.59;;;-3.58;99.27
14295;BME280;7231;59.370;18.016;2023-01-27T05:55:54;102665.44;;;-3.39;99.51
14295;BME280;7231;59.370;18.016;2023-01-27T05:58:23;102662.53;;;-3.42;99.50
14295;BME280;7231;59.370;18.016;2023-01-27T06:00:53;102664.00;;;-3.44;99.05
14295;BME280;7231;59.370;18.016;2023-01-27T06:03:21;102666.41;;;-3.45;99.50
14295;BME280;7231;59.370;18.016;2023-01-27T06:05:53;102656.41;;;-3.58;99.57
14295;BME280;7231;59.370;18.016;2023-01-27T06:08:23;102643.47;;;-3.67;99.50
14295;BME280;7231;59.370;18.016;2023-01-27T06:10:52;102668.22;;;-3.44;99.29
14295;BME280;7231;59.370;18.016;2023-01-27T06:13:22;102652.53;;;-3.54;99.28
14295;BME280;7231;59.370;18.016;2023-01-27T06:15:51;102671.53;;;-3.45;99.52
14295;BME280;7231;59.370;18.016;2023-01-27T06:18:20;102645.50;;;-3.71;99.23
14295;BME280;7231;59.370;18.016;2023-01-27T06:20:49;102625.22;;;-3.77;99.50
14295;BME280;7231;59.370;18.016;2023-01-27T06:23:17;102676.66;;;-3.45;99.55
14295;BME280;7231;59.370;18.016;2023-01-27T06:25:46;102605.84;;;-3.82;99.87
14295;BME280;7231;59.370;18.016;2023-01-27T06:28:15;102668.97;;;-3.45;99.32
14295;BME280;7231;59.370;18.016;2023-01-27T06:31:03;102648.38;;;-3.61;99.71
14295;BME280;7231;59.370;18.016;2023-01-27T06:33:32;102674.47;;;-3.49;99.91
14295;BME280;7231;59.370;18.016;2023-01-27T06:36:01;102673.75;;;-3.48;99.91
14295;BME280;7231;59.370;18.016;2023-01-27T06:38:30;102683.25;;;-3.47;100.00
14295;BME280;7231;59.370;18.016;2023-01-27T06:40:58;102657.31;;;-3.57;100.00
14295;BME280;7231;59.370;18.016;2023-01-27T06:43:26;102679.41;;;-3.44;100.00
14295;BME280;7231;59.370;18.016;2023-01-27T06:45:55;102679.03;;;-3.47;100.00
14295;BME280;7231;59.370;18.016;2023-01-27T06:48:26;102692.38;;;-3.42;99.97
14295;BME280;7231;59.370;18.016;2023-01-27T06:50:55;102580.91;;;-4.06;100.00
14295;BME280;7231;59.370;18.016;2023-01-27T06:53:23;102696.78;;;-3.41;100.00
14295;BME280;7231;59.370;18.016;2023-01-27T06:55:54;102652.47;;;-3.70;100.00
14295;BME280;7231;59.370;18.016;2023-01-27T06:58:22;102697.53;;;-3.42;100.00
14295;BME280;7231;59.370;18.016;2023-01-27T07:00:50;102690.75;;;-3.42;100.00
14295;BME280;7231;59.370;18.016;2023-01-27T07:03:18;102682.88;;;-3.43;100.00
14295;BME280;7231;59.370;18.016;2023-01-27T07:05:48;102690.56;;;-3.43;100.00
14295;BME280;7231;59.370;18.016;2023-01-27T07:08:16;102638.22;;;-3.75;100.00
14295;BME280;7231;59.370;18.016;2023-01-27T07:10:43;102651.59;;;-3.78;100.00
14295;BME280;7231;59.370;18.016;2023-01-27T07:13:12;102707.78;;;-3.42;100.00
14295;BME280;7231;59.370;18.016;2023-01-27T07:15:40;102693.53;;;-3.47;100.00
14295;BME280;7231;59.370;18.016;2023-01-27T07:18:09;102703.72;;;-3.40;100.00
14295;BME280;7231;59.370;18.016;2023-01-27T07:20:38;102665.97;;;-3.64;100.00
14295;BME280;7231;59.370;18.016;2023-01-27T07:23:08;102698.59;;;-3.40;100.00
14295;BME280;7231;59.370;18.016;2023-01-27T07:25:36;102705.56;;;-3.39;100.00
14295;BME280;7231;59.370;18.016;2023-01-27T07:28:05;102709.22;;;-3.37;100.00
14295;BME280;7231;59.370;18.016;2023-01-27T07:30:33;102692.44;;;-3.49;100.00
14295;BME280;7231;59.370;18.016;2023-01-27T07:33:02;102646.41;;;-3.71;100.00
14295;BME280;7231;59.370;18.016;2023-01-27T07:35:31;102711.78;;;-3.37;100.00
14295;BME280;7231;59.370;18.016;2023-01-27T07:37:59;102718.00;;;-3.35;100.00
14295;BME280;7231;59.370;18.016;2023-01-27T07:40:28;102720.91;;;-3.32;100.00
14295;BME280;7231;59.370;18.016;2023-01-27T07:42:57;102680.91;;;-3.53;100.00
14295;BME280;7231;59.370;18.016;2023-01-27T07:45:26;102717.75;;;-3.30;100.00
14295;BME280;7231;59.370;18.016;2023-01-27T07:47:58;102716.28;;;-3.28;100.00
14295;BME280;7231;59.370;18.016;2023-01-27T07:50:27;102720.84;;;-3.25;100.00
14295;BME280;7231;59.370;18.016;2023-01-27T07:52:57;102719.38;;;-3.23;100.00
14295;BME280;7231;59.370;18.016;2023-01-27T07:55:26;102720.28;;;-3.22;100.00
14295;BME280;7231;59.370;18.016;2023-01-27T07:57:55;102720.63;;;-3.19;100.00
14295;BME280;7231;59.370;18.016;2023-01-27T08:00:23;102724.28;;;-3.17;100.00
14295;BME280;7231;59.370;18.016;2023-01-27T08:02:52;102727.19;;;-3.14;100.00
14295;BME280;7231;59.370;18.016;2023-01-27T08:05:21;102721.50;;;-3.12;100.00
14295;BME280;7231;59.370;18.016;2023-01-27T08:07:49;102712.31;;;-3.10;100.00
14295;BME280;7231;59.370;18.016;2023-01-27T08:10:18;102711.75;;;-3.07;100.00
14295;BME280;7231;59.370;18.016;2023-01-27T08:12:46;102678.72;;;-3.27;100.00
14295;BME280;7231;59.370;18.016;2023-01-27T08:15:16;102724.69;;;-2.99;100.00
14295;BME280;7231;59.370;18.016;2023-01-27T08:17:52;102715.50;;;-2.97;100.00
14295;BME280;7231;59.370;18.016;2023-01-27T08:20:20;102720.06;;;-2.94;100.00
14295;BME280;7231;59.370;18.016;2023-01-27T08:22:48;102720.41;;;-2.91;100.00
14295;BME280;7231;59.370;18.016;2023-01-27T08:25:16;102712.47;;;-2.85;100.00
14295;BME280;7231;59.370;18.016;2023-01-27T08:27:48;102692.56;;;-2.95;100.00
14295;BME280;7231;59.370;18.016;2023-01-27T08:30:18;102719.53;;;-2.76;100.00
14295;BME280;7231;59.370;18.016;2023-01-27T08:32:46;102642.53;;;-3.14;100.00
14295;BME280;7231;59.370;18.016;2023-01-27T08:35:14;102710.53;;;-2.56;100.00
14295;BME280;7231;59.370;18.016;2023-01-27T08:37:42;102705.56;;;-2.39;100.00
14295;BME280;7231;59.370;18.016;2023-01-27T08:40:13;102713.13;;;-2.09;100.00
14295;BME280;7231;59.370;18.016;2023-01-27T08:42:41;102678.53;;;-1.88;100.00
14295;BME280;7231;59.370;18.016;2023-01-27T08:45:09;102635.75;;;-1.64;100.00
14295;BME280;7231;59.370;18.016;2023-01-27T08:47:39;102709.47;;;-0.82;100.00
14295;BME280;7231;59.370;18.016;2023-01-27T08:50:08;102706.84;;;-0.49;100.00
14295;BME280;7231;59.370;18.016;2023-01-27T08:52:36;102702.38;;;-0.17;100.00
14295;BME280;7231;59.370;18.016;2023-01-27T08:55:05;102696.91;;;0.23;100.00
14295;BME280;7231;59.370;18.016;2023-01-27T08:57:33;102699.09;;;0.80;100.00
14295;BME280;7231;59.370;18.016;2023-01-27T09:00:03;102684.47;;;0.98;100.00
14295;BME280;7231;59.370;18.016;2023-01-27T09:02:32;102705.53;;;1.11;100.00
14295;BME280;7231;59.370;18.016;2023-01-27T09:05:01;102703.34;;;1.60;100.00
14295;BME280;7231;59.370;18.016;2023-01-27T09:07:29;102704.28;;;1.99;100.00
14295;BME280;7231;59.370;18.016;2023-01-27T09:09:58;102690.53;;;2.08;100.00
14295;BME280;7231;59.370;18.016;2023-01-27T09:12:40;102699.94;;;2.45;100.00
14295;BME280;7231;59.370;18.016;2023-01-27T09:15:09;102697.88;;;2.80;100.00
14295;BME280;7231;59.370;18.016;2023-01-27T09:17:37;102704.06;;;3.01;100.00
14295;BME280;7231;59.370;18.016;2023-01-27T09:20:08;102703.41;;;3.04;98.66
14295;BME280;7231;59.370;18.016;2023-01-27T09:22:37;102690.97;;;3.00;97.92
14295;BME280;7231;59.370;18.016;2023-01-27T09:25:07;102703.59;;;3.15;97.66
14295;BME280;7231;59.370;18.016;2023-01-27T09:27:35;102688.19;;;3.37;97.33
14295;BME280;7231;59.370;18.016;2023-01-27T09:30:07;102697.97;;;3.80;96.53
14295;BME280;7231;59.370;18.016;2023-01-27T09:32:35;102696.13;;;4.20;93.36
14295;BME280;7231;59.370;18.016;2023-01-27T09:35:03;102696.53;;;3.94;90.67
14295;BME280;7231;59.370;18.016;2023-01-27T09:37:35;102693.94;;;3.74;88.45
14295;BME280;7231;59.370;18.016;2023-01-27T09:40:11;102702.22;;;3.49;86.73
14295;BME280;7231;59.370;18.016;2023-01-27T09:46:08;102693.63;;;3.30;84.79
14295;BME280;7231;59.370;18.016;2023-01-27T09:49:02;102695.94;;;3.17;83.98
14295;BME280;7231;59.370;18.016;2023-01-27T09:51:44;102701.50;;;3.11;83.97
14295;BME280;7231;59.370;18.016;2023-01-27T09:54:31;102696.69;;;3.06;83.56
14295;BME280;7231;59.370;18.016;2023-01-27T09:57:10;102672.94;;;3.01;83.74
14295;BME280;7231;59.370;18.016;2023-01-27T10:00:09;102692.81;;;3.11;82.50
14295;BME280;7231;59.370;18.016;2023-01-27T10:02:52;102644.34;;;2.71;82.84
14295;BME280;7231;59.370;18.016;2023-01-27T10:05:38;102690.69;;;2.97;82.45
14295;BME280;7231;59.370;18.016;2023-01-27T10:08:29;102697.69;;;2.98;82.43
14295;BME280;7231;59.370;18.016;2023-01-27T10:11:12;102695.38;;;3.01;82.16
14295;BME280;7231;59.370;18.016;2023-01-27T10:13:52;102679.66;;;2.89;81.99
14295;BME280;7231;59.370;18.016;2023-01-27T10:16:46;102691.97;;;2.52;81.44
14295;BME280;7231;59.370;18.016;2023-01-27T10:19:34;102698.44;;;2.28;82.00
14295;BME280;7231;59.370;18.016;2023-01-27T10:22:14;102692.41;;;2.19;83.74
14295;BME280;7231;59.370;18.016;2023-01-27T10:24:54;102694.56;;;2.52;85.08
14295;BME280;7231;59.370;18.016;2023-01-27T10:27:32;102675.69;;;3.03;85.95
14295;BME280;7231;59.370;18.016;2023-01-27T10:30:08;102681.44;;;3.19;84.40
14295;BME280;7231;59.370;18.016;2023-01-27T10:32:43;102676.22;;;3.09;84.82
14295;BME280;7231;59.370;18.016;2023-01-27T10:35:15;102687.34;;;3.08;83.78
14295;BME280;7231;59.370;18.016;2023-01-27T10:37:53;102681.56;;;3.20;84.71
14295;BME280;7231;59.370;18.016;2023-01-27T10:40:30;102689.91;;;3.67;84.47
14295;BME280;7231;59.370;18.016;2023-01-27T10:43:07;102679.81;;;3.60;83.04
14295;BME280;7231;59.370;18.016;2023-01-27T10:45:41;102686.03;;;3.62;81.28
14295;BME280;7231;59.370;18.016;2023-01-27T10:48:24;102624.63;;;3.02;79.47
14295;BME280;7231;59.370;18.016;2023-01-27T10:50:58;102669.72;;;3.04;78.42
14295;BME280;7231;59.370;18.016;2023-01-27T10:53:33;102686.72;;;2.71;77.68
14295;BME280;7231;59.370;18.016;2023-01-27T10:56:09;102690.72;;;2.39;77.64
14295;BME280;7231;59.370;18.016;2023-01-27T10:58:47;102676.59;;;2.16;76.86
14295;BME280;7231;59.370;18.016;2023-01-27T11:01:24;102676.41;;;2.05;77.19
14295;BME280;7231;59.370;18.016;2023-01-27T11:03:57;102682.00;;;1.90;76.72
14295;BME280;7231;59.370;18.016;2023-01-27T11:06:29;102667.78;;;1.77;77.42
14295;BME280;7231;59.370;18.016;2023-01-27T11:09:05;102650.00;;;1.52;76.61
14295;BME280;7231;59.370;18.016;2023-01-27T11:11:34;102612.63;;;1.21;77.43
14295;BME280;7231;59.370;18.016;2023-01-27T11:14:21;102633.91;;;1.19;77.33
14295;BME280;7231;59.370;18.016;2023-01-27T11:16:53;102658.72;;;1.44;78.17
14295;BME280;7231;59.370;18.016;2023-01-27T11:19:29;102643.97;;;1.43;78.16
14295;BME280;7231;59.370;18.016;2023-01-27T11:22:01;102656.69;;;1.50;77.44
14295;BME280;7231;59.370;18.016;2023-01-27T11:24:43;102666.09;;;1.58;78.23
14295;BME280;7231;59.370;18.016;2023-01-27T11:27:23;102658.19;;;1.57;77.43
14295;BME280;7231;59.370;18.016;2023-01-27T11:29:57;102650.00;;;1.52;77.62
14295;BME280;7231;59.370;18.016;2023-01-27T11:32:35;102658.22;;;1.48;78.05
14295;BME280;7231;59.370;18.016;2023-01-27T11:35:08;102629.28;;;1.34;78.63
14295;BME280;7231;59.370;18.016;2023-01-27T11:37:38;102649.84;;;1.51;78.10
14295;BME280;7231;59.370;18.016;2023-01-27T11:40:15;102648.13;;;1.60;78.38
14295;BME280;7231;59.370;18.016;2023-01-27T11:42:44;102652.09;;;1.56;78.01
14295;BME280;7231;59.370;18.016;2023-01-27T11:45:16;102651.34;;;1.57;78.00
14295;BME280;7231;59.370;18.016;2023-01-27T11:47:47;102639.31;;;1.58;78.07
14295;BME280;7231;59.370;18.016;2023-01-27T11:50:18;102640.91;;;1.47;78.04
14295;BME280;7231;59.370;18.016;2023-01-27T11:52:48;102640.34;;;1.41;78.59
14295;BME280;7231;59.370;18.016;2023-01-27T11:55:20;102639.19;;;1.29;78.43
14295;BME280;7231;59.370;18.016;2023-01-27T11:57:54;102638.66;;;1.14;78.37
14295;BME280;7231;59.370;18.016;2023-01-27T12:00:27;102617.47;;;1.00;78.67
14295;BME280;7231;59.370;18.016;2023-01-27T12:03:02;102635.78;;;1.11;79.08
14295;BME280;7231;59.370;18.016;2023-01-27T12:05:34;102612.28;;;1.00;78.90
14295;BME280;7231;59.370;18.016;2023-01-27T12:08:04;102631.06;;;1.16;79.10
14295;BME280;7231;59.370;18.016;2023-01-27T12:10:34;102630.25;;;1.25;78.88
14295;BME280;7231;59.370;18.016;2023-01-27T12:13:07;102626.34;;;1.39;78.69
14295;BME280;7231;59.370;18.016;2023-01-27T12:15:37;102611.78;;;1.58;79.47
14295;BME280;7231;59.370;18.016;2023-01-27T12:18:14;102603.91;;;1.76;78.82
14295;BME280;7231;59.370;18.016;2023-01-27T12:20:44;102618.78;;;1.97;78.91
14295;BME280;7231;59.370;18.016;2023-01-27T12:23:20;102610.59;;;2.11;78.43
14295;BME280;7231;59.370;18.016;2023-01-27T12:25:53;102604.34;;;2.28;78.36
14295;BME280;7231;59.370;18.016;2023-01-27T12:28:26;102607.16;;;2.50;78.38
14295;BME280;7231;59.370;18.016;2023-01-27T12:31:04;102605.22;;;2.68;78.16
14295;BME280;7231;59.370;18.016;2023-01-27T12:33:35;102589.31;;;2.73;77.23
14295;BME280;7231;59.370;18.016;2023-01-27T12:36:11;102575.84;;;2.67;76.77
14295;BME280;7231;59.370;18.016;2023-01-27T12:38:44;102584.91;;;2.72;76.87
14295;BME280;7231;59.370;18.016;2023-01-27T12:41:20;102581.31;;;2.80;76.76
14295;BME280;7231;59.370;18.016;2023-01-27T12:43:50;102604.13;;;2.84;76.15
14295;BME280;7231;59.370;18.016;2023-01-27T12:46:22;102607.84;;;2.78;75.71
14295;BME280;7231;59.370;18.016;2023-01-27T12:48:53;102600.44;;;2.72;75.86
14295;BME280;7231;59.370;18.016;2023-01-27T12:51:37;102603.28;;;2.65;75.45
14295;BME280;7231;59.370;18.016;2023-01-27T12:54:15;102597.59;;;2.59;75.27
14295;BME280;7231;59.370;18.016;2023-01-27T12:56:43;102598.59;;;2.61;75.23
14295;BME280;7231;59.370;18.016;2023-01-27T12:59:13;102596.16;;;2.63;74.92
14295;BME280;7231;59.370;18.016;2023-01-27T13:01:56;102593.78;;;2.45;75.01
14295;BME280;7231;59.370;18.016;2023-01-27T13:04:24;102566.81;;;2.04;75.75
14295;BME280;7231;59.370;18.016;2023-01-27T13:06:56;102593.13;;;1.90;76.28
14295;BME280;7231;59.370;18.016;2023-01-27T13:09:32;102589.06;;;1.83;76.28
14295;BME280;7231;59.370;18.016;2023-01-27T13:12:11;102590.41;;;1.70;76.54
14295;BME280;7231;59.370;18.016;2023-01-27T13:14:42;102572.22;;;1.41;76.70
14295;BME280;7231;59.370;18.016;2023-01-27T13:17:36;102590.19;;;1.39;77.21